createdAt,value
2022-12-14T00:04:26.418Z,99926.25
2022-12-14T00:09:18.165Z,99859.22
2022-12-14T00:14:09.701Z,99719.44
2022-12-14T00:19:02.369Z,99793.00
2022-12-14T00:23:54.977Z,99905.13
2022-12-14T00:28:47.911Z,99833.19
2022-12-14T00:33:39.953Z,99745.03
2022-12-14T00:38:31.566Z,99860.03
2022-12-14T00:43:23.805Z,99835.16
2022-12-14T00:48:17.421Z,99819.28
2022-12-14T00:53:09.694Z,99846.31
2022-12-14T00:58:01.478Z,99864.31
2022-12-14T01:02:53.005Z,99864.47
2022-12-14T01:07:44.801Z,99857.41
2022-12-14T01:12:40.540Z,99790.44
2022-12-14T01:17:32.302Z,99771.06
2022-12-14T01:22:24.012Z,99742.16
2022-12-14T01:27:15.638Z,99722.72
2022-12-14T01:32:07.237Z,99811.31
2022-12-14T01:36:58.839Z,99655.69
2022-12-14T01:41:54.180Z,99803.31
2022-12-14T01:46:54.504Z,99804.16
2022-12-14T01:51:53.485Z,99715.16
2022-12-14T01:56:46.720Z,99679.00
2022-12-14T02:01:38.757Z,99777.47
2022-12-14T02:06:35.769Z,99787.97
2022-12-14T02:11:59.032Z,99724.31
2022-12-14T02:16:53.517Z,99718.75
2022-12-14T02:21:47.986Z,99772.00
2022-12-14T02:27:02.744Z,99709.06
2022-12-14T02:32:51.755Z,99755.50
2022-12-14T02:37:49.030Z,99749.97
2022-12-14T02:43:13.967Z,99681.34
2022-12-14T02:48:26.117Z,99718.59
2022-12-14T02:53:47.124Z,99726.91
2022-12-14T02:58:41.218Z,99603.78
2022-12-14T03:03:32.850Z,99636.03
2022-12-14T03:08:27.634Z,99701.88
2022-12-14T03:13:25.370Z,99693.72
2022-12-14T03:18:19.670Z,99633.19
2022-12-14T03:23:15.980Z,99697.63
2022-12-14T03:28:13.773Z,99709.22
2022-12-14T03:33:11.617Z,99653.44
2022-12-14T03:38:17.973Z,99700.75
2022-12-14T03:43:09.512Z,99715.88
2022-12-14T03:48:10.262Z,99715.88
2022-12-14T03:53:09.772Z,99630.00
2022-12-14T03:58:30.542Z,99699.84
2022-12-14T04:03:25.045Z,99688.75
2022-12-14T04:08:48.730Z,99602.44
2022-12-14T04:14:04.722Z,99597.09
2022-12-14T04:19:00.688Z,99615.44
2022-12-14T04:24:19.281Z,99575.88
2022-12-14T04:29:35.327Z,99679.28
2022-12-14T04:34:29.989Z,99613.91
2022-12-14T04:39:31.264Z,99535.81
2022-12-14T04:44:32.325Z,99537.00
2022-12-14T04:49:32.255Z,99395.06
2022-12-14T04:54:31.965Z,99514.63
2022-12-14T04:59:24.609Z,99582.72
2022-12-14T05:04:37.621Z,99644.75
2022-12-14T05:09:39.729Z,99607.53
2022-12-14T05:14:40.356Z,99630.47
2022-12-14T05:19:32.410Z,99626.94
2022-12-14T05:24:24.017Z,99622.25
2022-12-14T05:29:16.904Z,99428.50
2022-12-14T05:34:08.511Z,99590.91
2022-12-14T05:39:00.280Z,99461.88
2022-12-14T05:43:52.342Z,99587.19
2022-12-14T05:48:48.986Z,99575.47
2022-12-14T05:53:41.280Z,99531.91
2022-12-14T05:58:34.862Z,99573.88
2022-12-14T06:03:26.855Z,99571.31
2022-12-14T06:08:18.645Z,99494.53
2022-12-14T06:13:10.329Z,99568.28
2022-12-14T06:18:01.880Z,99584.50
2022-12-14T06:22:56.531Z,99551.38
2022-12-14T06:27:52.384Z,99494.06
2022-12-14T06:32:43.917Z,99509.22
2022-12-14T06:37:35.444Z,99513.75
2022-12-14T06:42:27.350Z,99509.41
2022-12-14T06:47:19.182Z,99578.28
2022-12-14T06:52:10.774Z,99590.19
2022-12-14T06:57:05.499Z,99575.06
2022-12-14T07:01:57.081Z,99574.91
2022-12-14T07:06:49.148Z,99453.75
2022-12-14T07:11:41.168Z,99474.63
2022-12-14T07:16:34.855Z,99410.19
2022-12-14T07:21:27.533Z,99573.47
2022-12-14T07:26:22.037Z,99535.97
2022-12-14T07:31:16.917Z,99578.13
2022-12-14T07:36:11.489Z,99551.25
2022-12-14T07:41:05.680Z,99543.06
2022-12-14T07:46:05.762Z,99512.19
2022-12-14T07:51:11.997Z,99457.63
2022-12-14T07:56:27.384Z,99523.44
2022-12-14T08:01:20.258Z,99573.81
2022-12-14T08:06:13.644Z,99575.91
2022-12-14T08:11:06.137Z,99568.69
2022-12-14T08:16:05.803Z,99393.56
2022-12-14T08:20:57.450Z,99578.00
2022-12-14T08:25:54.384Z,99490.84
2022-12-14T08:30:45.999Z,99474.13
2022-12-14T08:35:37.589Z,99501.31
2022-12-14T08:40:29.871Z,99571.28
2022-12-14T08:45:21.752Z,99487.97
2022-12-14T08:50:13.503Z,99517.53
2022-12-14T08:55:07.000Z,99574.31
2022-12-14T09:00:01.704Z,99576.75
2022-12-14T09:04:54.713Z,99565.63
2022-12-14T09:09:46.264Z,99375.44
2022-12-14T09:14:37.833Z,99602.81
2022-12-14T09:19:29.433Z,99596.81
2022-12-14T09:24:21.397Z,99422.53
2022-12-14T09:29:17.650Z,99607.72
2022-12-14T09:34:10.513Z,99564.03
2022-12-14T09:39:02.745Z,99456.44
2022-12-14T09:44:32.674Z,99614.06
2022-12-14T09:49:31.978Z,99621.25
2022-12-14T09:54:27.534Z,99617.03
2022-12-14T09:59:20.845Z,99530.22
2022-12-14T10:04:50.900Z,99580.59
2022-12-14T10:10:08.475Z,99614.53
2022-12-14T10:15:27.294Z,99576.88
2022-12-14T10:20:25.464Z,99617.09
2022-12-14T10:25:24.298Z,99457.25
2022-12-14T10:30:18.597Z,99553.88
2022-12-14T10:35:16.999Z,99625.59
2022-12-14T10:40:33.156Z,99607.09
2022-12-14T10:45:41.572Z,99610.69
2022-12-14T10:50:53.575Z,99508.53
2022-12-14T10:55:46.859Z,99588.81
2022-12-14T11:00:38.627Z,99610.84
2022-12-14T11:05:41.240Z,99526.22
2022-12-14T11:10:35.869Z,99612.75
2022-12-14T11:15:43.077Z,99606.00
2022-12-14T11:20:34.815Z,99596.81
2022-12-14T11:25:38.507Z,99597.16
2022-12-14T11:30:30.475Z,99536.03
2022-12-14T11:35:22.247Z,99485.84
2022-12-14T11:40:25.627Z,99530.56
2022-12-14T11:45:26.465Z,99606.31
2022-12-14T11:50:25.155Z,99453.88
2022-12-14T11:55:26.697Z,99548.25
2022-12-14T12:00:24.394Z,99597.56
2022-12-14T12:05:19.654Z,99597.13
2022-12-14T12:10:18.388Z,99594.19
2022-12-14T12:15:17.262Z,99536.59
2022-12-14T12:20:24.523Z,99579.78
2022-12-14T12:25:30.850Z,99573.09
2022-12-14T12:30:30.996Z,99586.75
2022-12-14T12:35:32.711Z,99460.09
2022-12-14T12:40:34.442Z,99593.16
2022-12-14T12:45:35.958Z,99496.47
2022-12-14T12:50:33.971Z,99516.94
2022-12-14T12:55:28.090Z,99458.72
2022-12-14T13:00:22.528Z,99602.72
2022-12-14T13:05:46.325Z,99609.94
2022-12-14T13:10:35.907Z,99612.69
2022-12-14T13:15:57.141Z,99609.19
2022-12-14T13:20:49.747Z,99593.84
2022-12-14T13:26:28.234Z,99442.97
2022-12-14T13:32:02.655Z,99617.47
2022-12-14T13:37:12.322Z,99621.94
2022-12-14T13:42:40.563Z,99554.06
2022-12-14T13:47:44.848Z,99575.94
2022-12-14T13:52:44.149Z,99605.09
2022-12-14T13:57:35.847Z,99627.38
2022-12-14T14:02:27.531Z,99629.25
2022-12-14T14:07:25.348Z,99631.75
2022-12-14T14:12:38.031Z,99628.88
2022-12-14T14:17:40.446Z,99606.28
2022-12-14T14:22:32.133Z,99633.88
2022-12-14T14:27:27.408Z,99634.91
2022-12-14T14:32:31.203Z,99644.88
2022-12-14T14:37:31.569Z,99648.28
2022-12-14T14:42:26.866Z,99652.19
2022-12-14T14:47:37.479Z,99646.03
2022-12-14T14:52:41.583Z,99649.13
2022-12-14T14:57:53.422Z,99659.34
2022-12-14T15:02:45.875Z,99634.41
2022-12-14T15:07:37.703Z,99601.38
2022-12-14T15:12:42.942Z,99685.41
2022-12-14T15:17:34.545Z,99666.16
2022-12-14T15:22:28.433Z,99635.84
2022-12-14T15:27:34.803Z,99530.72
2022-12-14T15:32:26.542Z,99691.94
2022-12-14T15:37:41.912Z,99600.22
2022-12-14T15:42:33.676Z,99655.09
2022-12-14T15:47:30.485Z,99723.06
2022-12-14T15:52:29.796Z,99569.03
2022-12-14T15:57:21.444Z,99682.00
2022-12-14T16:02:30.599Z,99742.53
2022-12-14T16:07:36.540Z,99757.97
2022-12-14T16:12:32.619Z,99580.97
2022-12-14T16:17:33.989Z,99662.63
2022-12-14T16:22:28.145Z,99702.88
2022-12-14T16:27:20.178Z,99665.69
2022-12-14T16:32:16.328Z,99699.50
2022-12-14T16:37:32.269Z,99732.59
2022-12-14T16:42:27.140Z,99729.22
2022-12-14T16:47:48.565Z,99790.78
2022-12-14T16:52:40.161Z,99787.34
2022-12-14T16:57:31.727Z,99790.38
2022-12-14T17:02:32.915Z,99783.25
2022-12-14T17:07:27.640Z,99791.09
2022-12-14T17:12:19.258Z,99795.75
2022-12-14T17:17:17.100Z,99804.56
2022-12-14T17:22:29.452Z,99727.03
2022-12-14T17:27:22.226Z,99833.84
2022-12-14T17:32:16.782Z,99816.16
2022-12-14T17:37:16.686Z,99819.03
2022-12-14T17:42:12.466Z,99819.97
2022-12-14T17:47:04.062Z,99712.13
2022-12-14T17:51:55.688Z,99767.91
2022-12-14T17:56:47.272Z,99723.28
2022-12-14T18:01:40.855Z,99803.41
2022-12-14T18:06:32.510Z,99801.28
2022-12-14T18:11:26.850Z,99827.41
2022-12-14T18:16:21.151Z,99744.97
2022-12-14T18:21:19.368Z,99844.50
2022-12-14T18:26:12.737Z,99812.56
2022-12-14T18:31:07.332Z,99847.50
2022-12-14T18:35:59.091Z,99842.38
2022-12-14T18:40:53.102Z,99849.41
2022-12-14T18:45:44.822Z,99737.16
2022-12-14T18:50:42.395Z,99789.31
2022-12-14T18:55:34.796Z,99834.44
2022-12-14T19:00:29.666Z,99871.91
2022-12-14T19:05:26.098Z,99877.19
2022-12-14T19:10:23.808Z,99820.00
2022-12-14T19:15:18.129Z,99875.91
2022-12-14T19:20:12.610Z,99791.88
2022-12-14T19:25:04.570Z,99813.47
2022-12-14T19:29:56.428Z,99899.94
2022-12-14T19:34:47.985Z,99880.44
2022-12-14T19:39:39.569Z,99862.66
2022-12-14T19:44:34.478Z,99905.75
2022-12-14T19:49:26.235Z,99852.94
2022-12-14T19:54:18.185Z,99797.88
2022-12-14T19:59:10.020Z,99900.69
2022-12-14T20:04:01.644Z,99915.91
2022-12-14T20:09:00.842Z,99934.00
2022-12-14T20:13:58.139Z,99896.00
2022-12-14T20:18:52.335Z,99885.91
2022-12-14T20:23:44.808Z,99910.16
2022-12-14T20:28:37.013Z,99658.81
2022-12-14T20:33:30.863Z,99949.97
2022-12-14T20:38:22.695Z,99967.50
2022-12-14T20:43:14.432Z,99945.81
2022-12-14T20:48:09.748Z,99971.56
2022-12-14T20:53:01.854Z,99881.50
2022-12-14T20:57:54.003Z,99965.47
2022-12-14T21:02:45.776Z,99971.84
2022-12-14T21:07:38.540Z,99974.13
2022-12-14T21:12:33.177Z,99971.41
2022-12-14T21:17:26.856Z,99982.41
2022-12-14T21:22:21.515Z,99993.06
2022-12-14T21:27:22.521Z,99894.72
2022-12-14T21:32:14.876Z,99987.41
2022-12-14T21:37:06.871Z,99968.25
2022-12-14T21:42:12.581Z,99965.56
2022-12-14T21:47:06.992Z,99997.66
2022-12-14T21:51:58.945Z,99939.25
2022-12-14T21:57:09.661Z,99895.28
2022-12-14T22:02:04.548Z,99948.69
2022-12-14T22:06:56.607Z,99884.63
2022-12-14T22:11:49.016Z,100002.94
2022-12-14T22:16:41.311Z,100002.00
2022-12-14T22:21:33.198Z,99939.13
2022-12-14T22:26:24.806Z,100003.63
2022-12-14T22:31:18.677Z,100004.81
2022-12-14T22:36:10.270Z,99897.25
2022-12-14T22:41:03.368Z,99899.13
2022-12-14T22:45:55.051Z,99997.91
2022-12-14T22:50:46.683Z,100037.44
2022-12-14T22:55:39.073Z,99917.91
2022-12-14T23:00:30.572Z,100046.41
2022-12-14T23:05:22.299Z,99933.53
2022-12-14T23:10:32.620Z,99915.44
2022-12-14T23:15:42.853Z,99963.50
2022-12-14T23:20:53.314Z,100054.09
2022-12-14T23:26:03.674Z,100024.81
2022-12-14T23:31:17.273Z,100045.44
2022-12-14T23:36:27.331Z,99928.63
2022-12-14T23:41:37.477Z,99935.88
2022-12-14T23:46:47.736Z,100039.88
2022-12-14T23:51:58.096Z,100015.31
2022-12-14T23:57:08.348Z,99956.09
